Terminal Aerodrome Forecast
Issued by NWS Sterling, VA

Current Version | Previous Version | Graphics & Text | Print | Product List | Glossary On
Versions: 1 2 3 4 5 6 7 8 9 10 11 12 13 14 15 16 17 18 19 20 21 22 23 24 25
000
FTUS41 KLWX 161123
TAFIAD
TAF
KIAD 161123Z 1612/1718 07005KT P6SM SCT200
     FM161500 13008G16KT P6SM SCT150
     FM162300 16006KT P6SM SCT050 BKN110
     FM170700 18005KT P6SM -SHRA OVC035
     FM171000 19005KT P6SM SCT025 OVC035
     FM171300 20005KT P6SM OVC035
     FM171600 24006KT P6SM -SHRA OVC035=

USA.gov is the U.S. government's official web portal to all federal, state and local government web resources and services.